セブ の空港の天気 - METARとTAF

マクタン・セブ国際空港 ( RPVM / CEB ) - フィリピン セブ / ラプ=ラプ
飛行場実況気象(Metar)
観測時間04/27 14:00 +08 (04/27 06:00 UTC)
風向・風速北東 5m/s
視程10km以上
天気現象
全天の4割程度の雲 雲底高度 550m
全天の4割程度の雲 雲底高度 3050m
気温31℃
湿度62%
気圧1008hPa
METARRPVM 270600Z 05009KT 9999 SCT018CB SCT100 31/23 Q1008 NOSIG RMK A2977 CB E,S,SW-NW
過去の天気等 Google飛行場航空写真 Wunderground天気予報

過去48時間のMETAR

飛行場予報(TAF)
発表時間: 4/27 13:00 +08 (4/27 05:00 UTC)
予報対象時間: 27日14時 +08 ~ 28日20時 +08
風向・風速北東 4m/s
視程10km以上
少しの雲 雲底高度 610m
全天の4割程度の雲 雲底高度 9,140m
27日14時 +08 ~ 27日20時 +08 に一時的に
風向・風速東北東 5m/s
少しの積乱雲 雲底高度 550m
全天の8割程度の雲 雲底高度 3,050m
28日2時 +08 ~ 28日8時 +08 に一時的に
風向・風速北 3m/s
少しの雲 雲底高度 610m
全天の8割程度の雲 雲底高度 3,050m
TAF RPVM 270500Z 2706/2812 05008KT 9999 FEW020 SCT300
TEMPO 2706/2712 06010KT FEW018CB BKN100
TEMPO 2718/2724 36005KT FEW020 BKN100